createdAt,value
2022-12-17T00:02:20.646Z,100139.94
2022-12-17T00:05:07.368Z,100132.97
2022-12-17T00:07:58.595Z,100136.41
2022-12-17T00:10:45.127Z,100137.28
2022-12-17T00:14:35.735Z,100133.84
2022-12-17T00:22:33.412Z,100146.06
2022-12-17T00:39:31.091Z,100151.25
2022-12-17T00:43:34.058Z,100155.59
2022-12-17T00:47:59.379Z,100153.00
2022-12-17T01:06:34.923Z,100173.88
2022-12-17T01:10:49.455Z,100173.91
2022-12-17T01:23:38.562Z,100185.16
2022-12-17T01:26:52.825Z,100198.22
2022-12-17T01:34:34.260Z,100216.38
2022-12-17T01:37:36.641Z,100214.81
2022-12-17T01:49:12.927Z,100224.38
2022-12-17T01:51:59.211Z,100221.72
2022-12-17T01:54:46.728Z,100226.13
2022-12-17T01:58:07.231Z,100227.00
2022-12-17T02:04:29.140Z,100227.03
2022-12-17T02:08:02.883Z,100235.78
2022-12-17T02:11:22.984Z,100241.88
2022-12-17T02:14:48.007Z,100235.75
2022-12-17T02:21:07.260Z,100228.78
2022-12-17T02:24:15.872Z,100238.41
2022-12-17T02:27:07.156Z,100249.53
2022-12-17T02:29:58.959Z,100254.00
2022-12-17T02:32:46.183Z,100249.63
2022-12-17T02:35:49.483Z,100253.16
2022-12-17T02:38:42.355Z,100250.56
2022-12-17T02:41:52.399Z,100248.00
2022-12-17T02:44:40.503Z,100243.59
2022-12-17T02:47:29.877Z,100244.50
2022-12-17T02:50:16.036Z,100243.63
2022-12-17T02:53:06.643Z,100250.63
2022-12-17T02:55:54.424Z,100258.50
2022-12-17T02:58:40.927Z,100247.09
2022-12-17T03:01:27.934Z,100248.03
2022-12-17T03:04:14.378Z,100248.88
2022-12-17T03:07:00.651Z,100248.81
2022-12-17T03:09:46.681Z,100246.19
2022-12-17T03:12:33.019Z,100250.53
2022-12-17T03:15:19.385Z,100246.19
2022-12-17T03:18:05.785Z,100259.28
2022-12-17T03:20:51.912Z,100250.59
2022-12-17T03:23:38.763Z,100244.41
2022-12-17T03:26:25.549Z,100247.91
2022-12-17T03:29:11.862Z,100256.69
2022-12-17T03:31:58.282Z,100249.69
2022-12-17T03:34:44.709Z,100250.56
2022-12-17T03:37:31.072Z,100248.78
2022-12-17T03:40:17.290Z,100244.44
2022-12-17T03:43:03.784Z,100249.72
2022-12-17T03:45:50.237Z,100245.34
2022-12-17T03:48:36.693Z,100248.84
2022-12-17T03:51:23.166Z,100261.00
2022-12-17T03:54:09.422Z,100266.22
2022-12-17T03:56:55.855Z,100266.25
2022-12-17T03:59:55.977Z,100273.28
2022-12-17T04:02:42.512Z,100275.91
2022-12-17T04:05:29.103Z,100283.78
2022-12-17T04:08:15.395Z,100288.13
2022-12-17T04:11:01.782Z,100295.09
2022-12-17T04:13:48.429Z,100285.41
2022-12-17T04:16:35.134Z,100287.00
2022-12-17T04:19:21.507Z,100295.00
2022-12-17T04:22:08.148Z,100305.50
2022-12-17T04:24:54.127Z,100311.59
2022-12-17T04:27:39.929Z,100320.22
2022-12-17T04:30:26.867Z,100319.38
2022-12-17T04:33:13.250Z,100308.03
2022-12-17T04:35:59.735Z,100318.59
2022-12-17T04:38:46.200Z,100322.13
2022-12-17T04:41:32.479Z,100331.66
2022-12-17T04:44:18.963Z,100349.97
2022-12-17T04:47:05.340Z,100342.94
2022-12-17T04:49:51.250Z,100343.75
2022-12-17T04:52:37.264Z,100356.06
2022-12-17T04:55:23.606Z,100349.00
2022-12-17T04:58:09.929Z,100340.13
2022-12-17T05:00:56.571Z,100349.81
2022-12-17T05:03:43.412Z,100346.34
2022-12-17T05:06:29.828Z,100337.47
2022-12-17T05:09:31.102Z,100357.50
2022-12-17T05:12:17.329Z,100371.56
2022-12-17T05:15:03.708Z,100370.50
2022-12-17T05:17:50.004Z,100376.31
2022-12-17T05:20:36.310Z,100378.91
2022-12-17T05:23:26.781Z,100384.72
2022-12-17T05:26:32.116Z,100388.19
2022-12-17T05:29:18.575Z,100388.28
2022-12-17T05:32:04.958Z,100401.38
2022-12-17T05:34:51.429Z,100394.47
2022-12-17T05:37:38.572Z,100407.47
2022-12-17T05:40:25.885Z,100404.59
2022-12-17T05:43:20.945Z,100400.25
2022-12-17T05:46:07.914Z,100415.00
2022-12-17T05:48:55.304Z,100416.38
2022-12-17T05:51:42.751Z,100432.78
2022-12-17T05:54:29.160Z,100427.72
2022-12-17T05:57:15.557Z,100433.81
2022-12-17T06:00:05.100Z,100431.41
2022-12-17T06:02:58.813Z,100426.75
2022-12-17T06:05:45.356Z,100450.09
2022-12-17T06:08:31.669Z,100447.72
2022-12-17T06:11:19.097Z,100457.28
2022-12-17T06:14:06.032Z,100458.06
2022-12-17T06:16:53.466Z,100478.13
2022-12-17T06:19:39.926Z,100478.25
2022-12-17T06:22:26.501Z,100493.44
2022-12-17T06:25:13.470Z,100500.59
2022-12-17T06:28:00.234Z,100504.22
2022-12-17T06:30:46.770Z,100508.91
2022-12-17T06:33:33.389Z,100518.72
2022-12-17T06:36:22.585Z,100516.22
2022-12-17T06:39:23.543Z,100519.66
2022-12-17T06:42:09.876Z,100524.47
2022-12-17T06:44:57.709Z,100527.59
2022-12-17T06:47:44.118Z,100533.25
2022-12-17T06:50:30.369Z,100547.22
2022-12-17T06:53:23.759Z,100551.56
2022-12-17T06:56:10.549Z,100556.28
2022-12-17T06:59:23.887Z,100567.63
2022-12-17T07:02:10.436Z,100559.91
2022-12-17T07:04:56.917Z,100560.59
2022-12-17T07:07:51.010Z,100571.22
2022-12-17T07:10:38.695Z,100575.53
2022-12-17T07:13:25.873Z,100589.72
2022-12-17T07:16:13.893Z,100599.34
2022-12-17T07:18:59.719Z,100602.72
2022-12-17T07:21:46.069Z,100608.91
2022-12-17T07:24:32.281Z,100606.94
2022-12-17T07:27:18.005Z,100627.44
2022-12-17T07:30:03.814Z,100637.22
2022-12-17T07:32:50.235Z,100650.31
2022-12-17T07:35:36.243Z,100660.69
2022-12-17T07:38:22.737Z,100663.28
2022-12-17T07:41:09.059Z,100662.09
2022-12-17T07:43:55.481Z,100661.91
2022-12-17T07:46:42.880Z,100670.13
2022-12-17T07:49:28.608Z,100672.28
2022-12-17T07:52:17.736Z,100694.91
2022-12-17T07:55:03.488Z,100695.06
2022-12-17T07:57:50.032Z,100701.19
2022-12-17T08:00:36.459Z,100706.66
2022-12-17T08:03:23.900Z,100707.72
2022-12-17T08:06:10.171Z,100712.09
2022-12-17T08:08:56.073Z,100735.88
2022-12-17T08:11:42.136Z,100735.94
2022-12-17T08:14:53.814Z,100736.28
2022-12-17T08:17:40.012Z,100746.97
2022-12-17T08:20:26.968Z,100748.78
2022-12-17T08:23:20.072Z,100751.31
2022-12-17T08:26:07.426Z,100769.16
2022-12-17T08:28:54.045Z,100778.16
2022-12-17T08:31:42.441Z,100792.59
2022-12-17T08:34:28.377Z,100799.22
2022-12-17T08:37:14.699Z,100798.56
2022-12-17T08:40:00.941Z,100794.69
2022-12-17T08:42:47.229Z,100812.09
2022-12-17T08:45:33.496Z,100814.47
2022-12-17T08:48:26.428Z,100816.72
2022-12-17T08:51:13.112Z,100831.84
2022-12-17T08:53:58.952Z,100834.25
2022-12-17T08:56:45.056Z,100844.00
2022-12-17T08:59:30.759Z,100847.16
2022-12-17T09:02:16.709Z,100856.59
2022-12-17T09:05:02.573Z,100860.03
2022-12-17T09:07:48.493Z,100855.63
2022-12-17T09:10:34.357Z,100861.09
2022-12-17T09:13:22.134Z,100858.28
2022-12-17T09:16:14.918Z,100861.47
2022-12-17T09:19:01.316Z,100872.09
2022-12-17T09:21:49.496Z,100877.34
2022-12-17T09:24:35.415Z,100878.50
2022-12-17T09:27:21.538Z,100886.44
2022-12-17T09:30:07.302Z,100883.25
2022-12-17T09:32:52.988Z,100886.72
2022-12-17T09:35:38.575Z,100889.00
2022-12-17T09:38:24.387Z,100895.44
2022-12-17T09:41:10.617Z,100893.56
2022-12-17T09:44:15.482Z,100894.63
2022-12-17T09:47:11.206Z,100906.28
2022-12-17T09:49:59.560Z,100902.19
2022-12-17T09:52:51.963Z,100896.81
2022-12-17T09:55:55.004Z,100897.84
2022-12-17T09:58:43.142Z,100906.25
2022-12-17T10:01:41.439Z,100903.88
2022-12-17T10:04:47.363Z,100900.22
2022-12-17T10:07:39.662Z,100910.16
2022-12-17T10:10:38.120Z,100911.31
2022-12-17T10:13:36.125Z,100911.47
2022-12-17T10:16:42.725Z,100910.84
2022-12-17T10:19:54.214Z,100920.09
2022-12-17T10:22:41.437Z,100916.88
2022-12-17T10:25:41.595Z,100922.34
2022-12-17T10:28:34.116Z,100926.66
2022-12-17T10:31:25.643Z,100925.47
2022-12-17T10:34:15.688Z,100934.41
2022-12-17T10:37:12.813Z,100926.56
2022-12-17T10:40:00.780Z,100938.63
2022-12-17T10:42:49.692Z,100936.97
2022-12-17T10:45:54.420Z,100950.00
2022-12-17T10:48:45.714Z,100946.09
2022-12-17T10:51:52.607Z,100945.16
2022-12-17T10:54:49.042Z,100951.09
2022-12-17T10:57:49.326Z,100954.53
2022-12-17T11:00:49.379Z,100956.47
2022-12-17T11:04:07.629Z,100955.78
2022-12-17T11:10:13.851Z,100965.28
2022-12-17T11:13:20.581Z,100962.91
2022-12-17T11:16:12.463Z,100965.53
2022-12-17T11:18:58.202Z,100969.28
2022-12-17T11:21:54.183Z,100972.81
2022-12-17T11:24:45.162Z,100981.34
2022-12-17T11:27:42.999Z,100973.38
2022-12-17T11:30:33.739Z,100977.00
2022-12-17T11:33:20.814Z,100978.88
2022-12-17T11:36:14.051Z,100978.00
2022-12-17T11:39:09.725Z,100985.75
2022-12-17T11:42:34.001Z,100989.47
2022-12-17T11:45:44.816Z,100984.06
2022-12-17T11:48:55.435Z,100981.53
2022-12-17T11:52:04.985Z,100987.78
2022-12-17T11:55:05.391Z,100982.63
2022-12-17T11:57:57.623Z,100979.81
2022-12-17T12:00:43.968Z,100995.78
2022-12-17T12:03:51.681Z,100994.97
2022-12-17T12:06:52.218Z,100990.59
2022-12-17T12:09:38.096Z,100998.38
2022-12-17T12:12:23.885Z,100995.69
2022-12-17T12:15:53.090Z,100998.13
2022-12-17T12:18:48.556Z,101000.81
2022-12-17T12:21:49.393Z,101001.59
2022-12-17T12:25:10.877Z,101003.09
2022-12-17T12:28:10.112Z,101001.66
2022-12-17T12:31:15.176Z,100999.75
2022-12-17T12:34:16.361Z,101006.78
2022-12-17T12:37:05.041Z,101004.22
2022-12-17T12:39:58.844Z,101005.06
2022-12-17T12:42:54.309Z,101005.88
2022-12-17T12:45:48.290Z,101009.38
2022-12-17T12:48:58.168Z,101017.41
2022-12-17T12:51:59.139Z,101000.75
2022-12-17T12:54:51.493Z,101018.19
2022-12-17T12:57:54.674Z,101012.19
2022-12-17T13:00:45.405Z,101023.66
2022-12-17T13:03:44.265Z,101014.16
2022-12-17T13:06:34.874Z,101012.25
2022-12-17T13:09:07.514Z,101018.38
2022-12-17T13:11:38.480Z,101024.44
2022-12-17T13:14:15.097Z,101019.19
2022-12-17T13:16:45.554Z,101021.75
2022-12-17T13:19:33.340Z,101027.97
2022-12-17T13:22:21.979Z,101042.91
2022-12-17T13:24:53.893Z,101048.38
2022-12-17T13:27:40.332Z,101056.16
2022-12-17T13:30:21.630Z,101058.78
2022-12-17T13:33:04.194Z,101064.16
2022-12-17T13:36:06.454Z,101073.59
2022-12-17T13:38:49.902Z,101076.41
2022-12-17T13:41:32.232Z,101086.88
2022-12-17T13:44:17.344Z,101080.75
2022-12-17T13:46:49.800Z,101090.44
2022-12-17T13:49:18.668Z,101088.63
2022-12-17T13:51:46.804Z,101097.34
2022-12-17T13:54:18.877Z,101092.00
2022-12-17T13:57:02.470Z,101096.44
2022-12-17T13:59:30.344Z,101097.44
2022-12-17T14:01:58.241Z,101104.44
2022-12-17T14:04:31.094Z,101106.25
2022-12-17T14:07:01.124Z,101095.59
2022-12-17T14:09:38.532Z,101108.72
2022-12-17T14:12:22.550Z,101106.16
2022-12-17T14:14:57.291Z,101122.72
2022-12-17T14:17:27.996Z,101113.13
2022-12-17T14:20:07.657Z,101127.97
2022-12-17T14:22:38.545Z,101131.34
2022-12-17T14:25:16.178Z,101137.44
2022-12-17T14:27:53.991Z,101142.00
2022-12-17T14:30:35.328Z,101148.03
2022-12-17T14:33:03.088Z,101155.97
2022-12-17T14:35:35.341Z,101157.44
2022-12-17T14:38:04.212Z,101158.41
2022-12-17T14:40:32.396Z,101160.25
2022-12-17T14:43:01.693Z,101178.63
2022-12-17T14:45:29.522Z,101183.88
2022-12-17T14:48:01.934Z,101183.81
2022-12-17T14:50:33.909Z,101190.88
2022-12-17T14:53:24.722Z,101189.06
2022-12-17T14:55:57.454Z,101193.41
2022-12-17T14:58:27.023Z,101204.78
2022-12-17T15:01:04.879Z,101200.50
2022-12-17T15:03:37.820Z,101199.63
2022-12-17T15:06:08.721Z,101205.75
2022-12-17T15:08:45.424Z,101210.06
2022-12-17T15:11:16.014Z,101212.56
2022-12-17T15:13:43.682Z,101222.97
2022-12-17T15:16:12.051Z,101224.53
2022-12-17T15:18:39.959Z,101231.41
2022-12-17T15:21:11.892Z,101234.03
2022-12-17T15:23:43.695Z,101246.16
2022-12-17T15:26:12.094Z,101242.44
2022-12-17T15:28:40.066Z,101252.75
2022-12-17T15:31:10.281Z,101262.91
2022-12-17T15:33:38.092Z,101264.19
2022-12-17T15:36:07.548Z,101287.97
2022-12-17T15:38:57.530Z,101284.44
2022-12-17T15:41:45.897Z,101279.25
2022-12-17T15:44:13.791Z,101289.50
2022-12-17T15:46:43.638Z,101296.53
2022-12-17T15:49:11.368Z,101292.34
2022-12-17T15:51:41.183Z,101299.81
2022-12-17T15:54:09.030Z,101305.56
2022-12-17T15:56:38.373Z,101301.63
2022-12-17T15:59:06.045Z,101304.16
2022-12-17T16:01:34.168Z,101312.72
2022-12-17T16:04:01.786Z,101316.50
2022-12-17T16:06:29.338Z,101318.97
2022-12-17T16:09:00.604Z,101318.16
2022-12-17T16:11:28.098Z,101320.75
2022-12-17T16:14:04.574Z,101327.75
2022-12-17T16:16:32.389Z,101339.56
2022-12-17T16:19:02.112Z,101344.94
2022-12-17T16:21:29.619Z,101345.88
2022-12-17T16:23:57.253Z,101346.78
2022-12-17T16:26:24.702Z,101349.41
2022-12-17T16:29:09.747Z,101356.00
2022-12-17T16:31:39.529Z,101356.06
2022-12-17T16:34:11.247Z,101365.78
2022-12-17T16:36:39.403Z,101367.72
2022-12-17T16:39:07.285Z,101366.91
2022-12-17T16:41:34.869Z,101366.47
2022-12-17T16:44:03.046Z,101365.06
2022-12-17T16:46:34.155Z,101367.47
2022-12-17T16:49:19.554Z,101372.25
2022-12-17T16:51:53.467Z,101386.31
2022-12-17T16:54:27.928Z,101398.13
2022-12-17T16:56:55.682Z,101404.91
2022-12-17T16:59:26.050Z,101407.31
2022-12-17T17:01:53.779Z,101405.97
2022-12-17T17:04:23.327Z,101412.94
2022-12-17T17:06:53.788Z,101417.47
2022-12-17T17:09:22.562Z,101411.31
2022-12-17T17:11:52.005Z,101407.72
2022-12-17T17:14:20.089Z,101418.81
2022-12-17T17:16:47.705Z,101415.25
2022-12-17T17:19:15.480Z,101407.25
2022-12-17T17:21:48.742Z,101410.69
2022-12-17T17:24:21.261Z,101413.38
2022-12-17T17:26:51.483Z,101414.53
2022-12-17T17:29:19.238Z,101416.91
2022-12-17T17:34:37.001Z,101432.00
2022-12-17T17:37:04.467Z,101441.47
2022-12-17T17:39:33.361Z,101449.16
2022-12-17T17:42:01.365Z,101457.56
2022-12-17T17:44:29.061Z,101457.66
2022-12-17T17:46:56.609Z,101460.78
2022-12-17T17:49:24.299Z,101454.69
2022-12-17T17:52:08.834Z,101463.59
2022-12-17T17:54:36.922Z,101459.03
2022-12-17T17:57:04.377Z,101470.81
2022-12-17T17:59:34.119Z,101471.34
2022-12-17T18:02:03.453Z,101483.84
2022-12-17T18:04:31.960Z,101480.00
2022-12-17T18:09:46.879Z,101493.13
2022-12-17T18:12:35.899Z,101501.25
2022-12-17T18:15:19.009Z,101497.00
2022-12-17T18:17:50.644Z,101501.25
2022-12-17T18:20:18.774Z,101506.22
2022-12-17T18:22:47.063Z,101510.84
2022-12-17T18:25:16.158Z,101515.00
2022-12-17T18:27:44.266Z,101521.81
2022-12-17T18:30:12.171Z,101523.63
2022-12-17T18:32:39.812Z,101528.03
2022-12-17T18:35:07.825Z,101536.84
2022-12-17T18:37:35.328Z,101540.06
2022-12-17T18:40:03.359Z,101546.81
2022-12-17T18:42:49.162Z,101557.66
2022-12-17T18:45:16.631Z,101565.28
2022-12-17T18:47:44.811Z,101562.88
2022-12-17T18:50:13.107Z,101574.34
2022-12-17T18:52:41.725Z,101578.78
2022-12-17T18:55:12.290Z,101573.75
2022-12-17T18:57:39.690Z,101572.97
2022-12-17T19:00:07.758Z,101581.16
2022-12-17T19:02:35.351Z,101579.50
2022-12-17T19:05:02.895Z,101589.22
2022-12-17T19:07:31.223Z,101591.00
2022-12-17T19:09:58.696Z,101599.44
2022-12-17T19:12:26.352Z,101601.66
2022-12-17T19:14:53.802Z,101610.31
2022-12-17T19:17:21.357Z,101609.19
2022-12-17T19:19:48.761Z,101620.31
2022-12-17T19:22:16.183Z,101627.03
2022-12-17T19:24:43.688Z,101629.31
2022-12-17T19:27:11.218Z,101625.50
2022-12-17T19:29:38.808Z,101632.63
2022-12-17T19:32:25.010Z,101632.72
2022-12-17T19:34:52.522Z,101639.50
2022-12-17T19:37:19.952Z,101651.25
2022-12-17T19:39:47.442Z,101656.44
2022-12-17T19:42:24.965Z,101656.66
2022-12-17T19:44:54.260Z,101653.88
2022-12-17T19:47:23.609Z,101658.56
2022-12-17T19:49:51.476Z,101659.13
2022-12-17T19:52:19.171Z,101663.19
2022-12-17T19:54:46.653Z,101670.84
2022-12-17T19:57:14.084Z,101665.13
2022-12-17T19:59:41.701Z,101678.53
2022-12-17T20:02:10.007Z,101687.88
2022-12-17T20:04:37.602Z,101688.28
2022-12-17T20:07:04.944Z,101687.22
2022-12-17T20:09:32.392Z,101691.78
2022-12-17T20:11:59.815Z,101691.34
2022-12-17T20:14:28.390Z,101699.41
2022-12-17T20:16:58.099Z,101706.97
2022-12-17T20:19:31.038Z,101704.34
2022-12-17T20:22:00.987Z,101709.06
2022-12-17T20:24:31.980Z,101707.81
2022-12-17T20:27:00.293Z,101719.09
2022-12-17T20:29:28.105Z,101712.88
2022-12-17T20:31:56.045Z,101728.53
2022-12-17T20:34:24.532Z,101725.19
2022-12-17T20:36:53.728Z,101727.63
2022-12-17T20:39:27.257Z,101729.25
2022-12-17T20:41:56.605Z,101735.09
2022-12-17T20:44:24.303Z,101740.50
2022-12-17T20:46:52.211Z,101738.88
2022-12-17T20:49:19.881Z,101744.13
2022-12-17T20:51:47.529Z,101737.22
2022-12-17T20:54:15.084Z,101746.28
2022-12-17T20:56:42.733Z,101741.28
2022-12-17T20:59:16.411Z,101744.44
2022-12-17T21:01:44.930Z,101750.53
2022-12-17T21:04:14.640Z,101753.16
2022-12-17T21:06:44.504Z,101760.94
2022-12-17T21:09:14.241Z,101766.06
2022-12-17T21:11:42.458Z,101772.50
2022-12-17T21:14:13.841Z,101773.38
2022-12-17T21:16:42.663Z,101781.78
2022-12-17T21:19:14.266Z,101770.38
2022-12-17T21:21:42.050Z,101782.53
2022-12-17T21:24:10.288Z,101775.13
2022-12-17T21:26:47.273Z,101777.41
2022-12-17T21:29:15.731Z,101780.25
2022-12-17T21:31:48.896Z,101782.75
2022-12-17T21:34:23.570Z,101794.78
2022-12-17T21:36:51.501Z,101809.44
2022-12-17T21:39:20.128Z,101818.59
2022-12-17T21:42:08.198Z,101815.56
2022-12-17T21:44:36.432Z,101811.66
2022-12-17T21:47:04.069Z,101818.78
2022-12-17T21:49:31.996Z,101826.81
2022-12-17T21:52:00.520Z,101824.84
2022-12-17T21:54:28.310Z,101823.97
2022-12-17T21:56:55.883Z,101839.25
2022-12-17T21:59:23.456Z,101846.22
2022-12-17T22:02:03.673Z,101847.03
2022-12-17T22:04:32.114Z,101851.34
2022-12-17T22:07:07.250Z,101848.56
2022-12-17T22:10:40.612Z,101855.59
2022-12-17T22:13:33.411Z,101856.00
2022-12-17T22:16:06.127Z,101861.59
2022-12-17T22:18:33.677Z,101866.75
2022-12-17T22:21:04.289Z,101860.97
2022-12-17T22:23:32.019Z,101869.13
2022-12-17T22:26:00.017Z,101869.00
2022-12-17T22:28:27.523Z,101882.53
2022-12-17T22:31:13.851Z,101879.66
2022-12-17T22:34:18.857Z,101886.91
2022-12-17T22:40:21.589Z,101878.25
2022-12-17T22:40:56.401Z,101882.53
2022-12-17T22:44:31.775Z,101870.97
2022-12-17T22:45:13.556Z,101876.44
2022-12-17T22:47:41.678Z,101877.66
2022-12-17T22:50:09.800Z,101886.09
2022-12-17T22:52:37.778Z,101884.78
2022-12-17T22:55:07.520Z,101888.28
2022-12-17T22:57:38.271Z,101897.53
2022-12-17T23:00:17.358Z,101894.22
2022-12-17T23:02:45.021Z,101893.22
2022-12-17T23:05:13.293Z,101892.88
2022-12-17T23:07:40.825Z,101903.31
2022-12-17T23:10:09.220Z,101903.03
2022-12-17T23:12:52.113Z,101910.72
2022-12-17T23:16:05.280Z,101908.81
2022-12-17T23:18:33.076Z,101916.38
2022-12-17T23:21:08.546Z,101915.97
2022-12-17T23:23:39.640Z,101921.78
2022-12-17T23:26:16.115Z,101923.06
2022-12-17T23:28:45.031Z,101923.59
2022-12-17T23:31:18.593Z,101921.34
2022-12-17T23:33:47.337Z,101921.63
2022-12-17T23:36:20.810Z,101928.91
2022-12-17T23:38:49.440Z,101943.16
2022-12-17T23:41:20.269Z,101939.63
2022-12-17T23:43:48.734Z,101934.84
2022-12-17T23:46:21.495Z,101942.09
2022-12-17T23:48:50.392Z,101926.31
2022-12-17T23:51:20.533Z,101920.72
2022-12-17T23:53:48.171Z,101925.75
2022-12-17T23:56:23.189Z,101922.97
2022-12-17T23:58:59.577Z,101925.59
